createdAt,value
2017-11-01T04:43:46.830Z,6.80
2017-11-01T04:46:13.668Z,8.60
2017-11-01T04:48:40.529Z,8.67
2017-11-01T04:51:10.342Z,8.90
2017-11-01T04:53:37.231Z,6.23
2017-11-01T04:56:04.072Z,8.13
2017-11-01T04:58:30.966Z,8.83
2017-11-01T05:00:58.575Z,4.73
2017-11-01T05:03:26.233Z,8.80
2017-11-01T05:05:53.120Z,8.47
2017-11-01T05:08:25.727Z,6.03
2017-11-01T05:10:55.362Z,8.13
2017-11-01T05:13:22.207Z,8.60
2017-11-01T05:15:49.048Z,9.80
2017-11-01T05:18:15.934Z,9.10
2017-11-01T05:20:42.779Z,9.43
2017-11-01T05:23:09.642Z,8.17
2017-11-01T05:25:43.029Z,7.90
2017-11-01T05:28:12.562Z,7.50
2017-11-01T05:30:39.405Z,8.23
2017-11-01T05:33:06.289Z,6.60
2017-11-01T05:35:33.144Z,6.97
2017-11-01T05:37:59.966Z,4.83
2017-11-01T05:40:26.836Z,4.33
2017-11-01T05:42:53.693Z,0.67
2017-11-01T05:45:20.516Z,4.97
2017-11-01T05:47:47.428Z,5.03
2017-11-01T05:50:14.275Z,6.03
2017-11-01T05:52:41.503Z,4.40
2017-11-01T05:55:08.380Z,5.70
2017-11-01T05:57:35.262Z,4.57
2017-11-01T06:00:02.098Z,5.07
2017-11-01T06:02:28.995Z,4.20
2017-11-01T06:04:55.844Z,3.50
2017-11-01T06:07:22.815Z,4.13
2017-11-01T06:09:49.732Z,3.27
2017-11-01T06:12:16.572Z,3.27
2017-11-01T06:14:43.457Z,3.70
2017-11-01T06:17:10.339Z,2.67
2017-11-01T06:19:37.171Z,3.20
2017-11-01T06:22:04.048Z,3.63
2017-11-01T06:24:30.924Z,3.63
2017-11-01T06:26:57.805Z,4.57
2017-11-01T06:29:24.678Z,3.50
2017-11-01T06:31:51.558Z,4.33
2017-11-01T06:34:18.433Z,5.23
2017-11-01T06:36:47.012Z,4.77
2017-11-01T06:39:13.900Z,4.13
2017-11-01T06:41:40.735Z,4.50
2017-11-01T06:44:07.608Z,4.87
2017-11-01T06:46:34.484Z,4.47
2017-11-01T06:49:01.327Z,4.37
2017-11-01T06:51:28.169Z,4.90
2017-11-01T06:53:55.057Z,4.50
2017-11-01T06:56:21.851Z,5.10
2017-11-01T06:58:48.727Z,4.80
2017-11-01T07:01:15.619Z,4.33
2017-11-01T07:03:42.519Z,4.27
2017-11-01T07:06:09.326Z,4.57
2017-11-01T07:08:36.174Z,5.10
2017-11-01T07:11:03.010Z,4.40
2017-11-01T07:13:29.874Z,3.87
2017-11-01T07:15:56.751Z,5.07
2017-11-01T07:18:23.558Z,4.67
2017-11-01T07:20:50.374Z,4.30
2017-11-01T07:23:17.262Z,3.53
2017-11-01T07:25:44.077Z,4.60
2017-11-01T07:28:10.910Z,4.57
2017-11-01T07:30:37.792Z,4.10
2017-11-01T07:33:04.637Z,3.90
2017-11-01T07:35:31.449Z,2.33
2017-11-01T07:37:58.394Z,4.93
2017-11-01T07:40:25.221Z,3.83
2017-11-01T07:42:52.051Z,4.73
2017-11-01T07:45:18.891Z,3.40
2017-11-01T07:47:45.758Z,5.03
2017-11-01T07:50:12.633Z,3.20
2017-11-01T07:52:39.492Z,4.27
2017-11-01T07:55:06.321Z,3.87
2017-11-01T07:57:33.180Z,4.37
2017-11-01T08:00:00.020Z,4.27
2017-11-01T08:02:26.864Z,3.50
2017-11-01T08:04:53.697Z,4.03
2017-11-01T08:07:20.644Z,2.50
2017-11-01T08:09:47.443Z,2.60
2017-11-01T08:12:14.275Z,3.13
2017-11-01T08:14:41.111Z,4.00
2017-11-01T08:17:07.932Z,3.07
2017-11-01T08:19:34.740Z,2.20
2017-11-01T08:22:01.647Z,3.80
2017-11-01T08:24:28.478Z,3.73
2017-11-01T08:26:55.330Z,2.90
2017-11-01T08:29:22.177Z,3.93
2017-11-01T08:31:49.029Z,3.20
2017-11-01T08:34:15.857Z,2.97
2017-11-01T08:36:42.697Z,2.30
2017-11-01T08:39:09.542Z,2.93
2017-11-01T08:41:36.445Z,2.80
2017-11-01T08:44:03.285Z,2.57
2017-11-01T08:46:30.112Z,3.57
2017-11-01T08:48:57.218Z,2.80
2017-11-01T08:51:24.116Z,2.30
2017-11-01T08:53:50.958Z,3.30
2017-11-01T08:56:17.758Z,2.50
2017-11-01T08:58:44.643Z,3.20
2017-11-01T09:01:11.482Z,2.40
2017-11-01T09:03:38.315Z,2.93
2017-11-01T09:06:05.255Z,2.33
2017-11-01T09:08:32.080Z,3.17
2017-11-01T09:10:58.884Z,3.07
2017-11-01T09:13:25.755Z,4.60
2017-11-01T09:15:52.587Z,3.50
2017-11-01T09:18:19.408Z,3.50
2017-11-01T09:20:46.299Z,3.83
2017-11-01T09:23:13.108Z,3.10
2017-11-01T09:25:39.932Z,3.10
2017-11-01T09:28:11.291Z,3.77
2017-11-01T09:30:38.127Z,2.73
2017-11-01T09:33:04.943Z,3.40
2017-11-01T09:35:31.796Z,4.17
2017-11-01T09:37:58.625Z,4.63
2017-11-01T09:40:25.426Z,3.00
2017-11-01T09:42:55.281Z,4.40
2017-11-01T09:45:22.083Z,4.73
2017-11-01T09:47:48.926Z,3.17
2017-11-01T09:50:15.788Z,4.40
2017-11-01T09:52:42.648Z,4.33
2017-11-01T09:55:09.471Z,5.10
2017-11-01T09:57:36.544Z,4.77
2017-11-01T10:00:03.386Z,3.43
2017-11-01T10:02:30.167Z,2.43
2017-11-01T10:04:57.017Z,3.10
2017-11-01T10:07:23.850Z,3.43
2017-11-01T10:09:54.169Z,3.43
2017-11-01T10:12:21.610Z,3.80
2017-11-01T10:14:48.432Z,2.13
2017-11-01T10:17:15.231Z,4.87
2017-11-01T10:19:42.110Z,4.20
2017-11-01T10:22:08.964Z,4.73
2017-11-01T10:24:36.581Z,4.40
2017-11-01T10:27:04.295Z,4.90
2017-11-01T10:29:31.145Z,4.80
2017-11-01T10:31:58.055Z,5.40
2017-11-01T10:34:24.919Z,5.23
2017-11-01T10:36:51.730Z,5.17
2017-11-01T10:39:18.546Z,5.10
2017-11-01T10:41:45.401Z,5.53
2017-11-01T10:44:12.216Z,4.00
2017-11-01T10:46:39.058Z,5.87
2017-11-01T10:49:05.944Z,3.53
2017-11-01T10:51:32.813Z,5.90
2017-11-01T10:53:59.633Z,4.57
2017-11-01T10:56:26.485Z,5.30
2017-11-01T10:58:53.319Z,8.07
2017-11-01T11:01:20.135Z,7.03
2017-11-01T11:03:46.997Z,6.53
2017-11-01T11:06:13.848Z,7.57
2017-11-01T11:08:40.680Z,6.20
2017-11-01T11:11:07.539Z,8.43
2017-11-01T11:13:35.303Z,8.60
2017-11-01T11:16:02.130Z,5.77
2017-11-01T11:18:28.973Z,5.93
2017-11-01T11:20:55.799Z,8.33
2017-11-01T11:23:22.634Z,5.93
2017-11-01T11:25:49.495Z,4.33
2017-11-01T11:28:16.318Z,8.60
2017-11-01T11:30:43.139Z,8.90
2017-11-01T11:33:09.986Z,8.60
2017-11-01T11:35:36.826Z,9.10
2017-11-01T11:38:03.695Z,6.93
2017-11-01T11:40:30.574Z,6.93
2017-11-01T11:42:57.422Z,11.67
2017-11-01T11:45:24.261Z,10.70
2017-11-01T11:47:51.177Z,11.77
2017-11-01T11:50:18.043Z,10.13
2017-11-01T11:52:44.853Z,9.27
2017-11-01T11:55:11.739Z,10.80
2017-11-01T11:57:38.571Z,10.93
2017-11-01T12:00:05.421Z,8.83
2017-11-01T12:02:32.308Z,10.80
2017-11-01T12:04:59.378Z,11.60
2017-11-01T12:07:26.207Z,11.77
2017-11-01T12:09:53.095Z,13.03
2017-11-01T12:12:19.940Z,10.63
2017-11-01T12:14:46.754Z,10.07
2017-11-01T12:17:13.648Z,7.60
2017-11-01T12:19:40.487Z,7.83
2017-11-01T12:22:07.298Z,9.40
2017-11-01T12:24:34.184Z,10.40
2017-11-01T12:27:01.017Z,10.17
2017-11-01T12:29:27.872Z,10.30
2017-11-01T12:31:54.718Z,10.53
2017-11-01T12:34:21.557Z,11.77
2017-11-01T12:36:48.375Z,12.60
2017-11-01T12:39:15.250Z,10.60
2017-11-01T12:41:42.069Z,9.10
2017-11-01T12:44:08.871Z,10.87
2017-11-01T12:46:35.725Z,9.10
2017-11-01T12:49:02.544Z,7.97
2017-11-01T12:51:29.377Z,11.40
2017-11-01T12:53:56.247Z,11.77
2017-11-01T12:56:23.077Z,9.03
2017-11-01T12:58:49.912Z,10.97
2017-11-01T13:01:16.766Z,10.80
2017-11-01T13:03:43.599Z,10.50
2017-11-01T13:06:10.440Z,9.77
2017-11-01T13:08:37.300Z,9.03
2017-11-01T13:11:04.126Z,8.50
2017-11-01T13:13:30.924Z,8.90
2017-11-01T13:15:57.770Z,6.30
2017-11-01T13:18:24.607Z,11.90
2017-11-01T13:20:51.436Z,10.87
2017-11-01T13:23:18.296Z,7.97
2017-11-01T13:25:45.141Z,10.80
2017-11-01T13:28:11.966Z,8.97
2017-11-01T13:30:38.822Z,2.40
2017-11-01T13:33:05.623Z,6.17
2017-11-01T13:35:32.462Z,11.37
2017-11-01T13:37:59.289Z,9.90
2017-11-01T13:40:26.134Z,9.23
2017-11-01T13:42:52.946Z,6.87
2017-11-01T13:45:19.790Z,11.67
2017-11-01T13:47:46.601Z,9.63
2017-11-01T13:50:13.423Z,9.63
2017-11-01T13:52:40.263Z,11.13
2017-11-01T13:55:07.109Z,6.10
2017-11-01T13:57:33.954Z,11.07
2017-11-01T14:00:00.791Z,8.27
2017-11-01T14:02:27.631Z,12.10
2017-11-01T14:04:54.473Z,11.80
2017-11-01T14:07:21.350Z,11.20
2017-11-01T14:09:48.148Z,13.00
2017-11-01T14:12:15.007Z,14.85
2017-11-01T14:14:41.872Z,12.17
2017-11-01T14:17:08.693Z,11.03
2017-11-01T14:19:35.808Z,12.87
2017-11-01T14:22:02.981Z,12.27
2017-11-01T14:24:30.084Z,11.93
2017-11-01T14:26:57.219Z,13.50
2017-11-01T14:29:24.355Z,14.33
2017-11-01T14:31:51.206Z,12.17
2017-11-01T14:34:18.021Z,13.63
2017-11-01T14:36:44.870Z,12.53
2017-11-01T14:39:11.697Z,11.10
2017-11-01T14:41:38.527Z,11.60
2017-11-01T14:44:05.388Z,12.30
2017-11-01T14:46:32.219Z,10.97
2017-11-01T14:48:59.027Z,14.37
2017-11-01T14:51:25.903Z,9.27
2017-11-01T14:53:52.710Z,13.07
2017-11-01T14:56:19.544Z,14.20
2017-11-01T14:58:46.385Z,12.20
2017-11-01T15:01:13.219Z,7.13
2017-11-01T15:03:40.075Z,11.53
2017-11-01T15:06:06.940Z,14.50
2017-11-01T15:08:33.791Z,15.07
2017-11-01T15:11:00.597Z,16.20
2017-11-01T15:13:27.444Z,13.43
2017-11-01T15:15:54.277Z,14.40
2017-11-01T15:18:21.114Z,15.63
2017-11-01T15:20:47.971Z,14.43
2017-11-01T15:23:14.817Z,12.73
2017-11-01T15:25:41.632Z,14.13
2017-11-01T15:28:08.502Z,11.37
2017-11-01T15:30:35.293Z,13.27
2017-11-01T15:33:02.111Z,11.97
2017-11-01T15:35:28.950Z,11.53
2017-11-01T15:37:55.778Z,10.87
2017-11-01T15:40:22.597Z,11.37
2017-11-01T15:42:49.462Z,11.30
2017-11-01T15:45:16.305Z,10.80
2017-11-01T15:47:43.146Z,7.77
2017-11-01T15:50:10.006Z,8.43
2017-11-01T15:52:36.828Z,11.40
2017-11-01T15:55:03.648Z,12.60
2017-11-01T15:57:30.509Z,13.90
2017-11-01T15:59:57.341Z,15.13
2017-11-01T16:02:24.165Z,8.57
2017-11-01T16:04:51.009Z,13.70
2017-11-01T16:07:17.857Z,15.73
2017-11-01T16:09:44.670Z,15.53
2017-11-01T16:12:11.530Z,14.70
2017-11-01T16:14:38.370Z,17.73
2017-11-01T16:17:05.194Z,15.60
2017-11-01T16:19:32.063Z,16.47
2017-11-01T16:21:58.896Z,16.23
2017-11-01T16:24:25.758Z,17.10
2017-11-01T16:26:52.644Z,14.40
2017-11-01T16:29:19.548Z,13.73
2017-11-01T16:31:46.375Z,16.23
2017-11-01T16:34:13.261Z,15.43
2017-11-01T16:36:40.097Z,12.13
2017-11-01T16:39:06.967Z,14.87
2017-11-01T16:41:33.917Z,13.90
2017-11-01T16:44:00.741Z,11.37
2017-11-01T16:46:27.553Z,14.60
2017-11-01T16:48:54.412Z,15.37
2017-11-01T16:51:21.287Z,14.43
2017-11-01T16:53:48.159Z,14.30
2017-11-01T16:56:15.069Z,14.93
2017-11-01T16:58:41.918Z,15.60
2017-11-01T17:01:08.756Z,15.87
2017-11-01T17:03:35.704Z,15.57
2017-11-01T17:06:02.533Z,16.00
2017-11-01T17:08:29.391Z,15.97
2017-11-01T17:10:56.251Z,15.97
2017-11-01T17:13:23.063Z,15.50
2017-11-01T17:15:49.894Z,13.50
2017-11-01T17:18:17.035Z,15.67
2017-11-01T17:20:43.859Z,18.00
2017-11-01T17:23:10.695Z,18.50
2017-11-01T17:25:37.614Z,17.13
2017-11-01T17:28:04.473Z,14.00
2017-11-01T17:30:31.328Z,17.00
2017-11-01T17:32:58.215Z,16.67
2017-11-01T17:35:25.060Z,18.83
2017-11-01T17:37:51.888Z,16.80
2017-11-01T17:40:18.802Z,12.40
2017-11-01T17:42:46.318Z,19.20
2017-11-01T17:45:13.131Z,18.27
2017-11-01T17:47:41.991Z,15.97
2017-11-01T17:50:08.831Z,18.00
2017-11-01T17:52:36.082Z,18.43
2017-11-01T17:55:02.941Z,15.90
2017-11-01T17:57:31.649Z,18.47
2017-11-01T17:59:58.504Z,17.37
2017-11-01T18:02:25.342Z,16.40
2017-11-01T18:04:52.204Z,16.67
2017-11-01T18:07:19.045Z,16.67
2017-11-01T18:09:45.920Z,17.27
2017-11-01T18:12:12.766Z,16.03
2017-11-01T18:14:39.677Z,16.97
2017-11-01T18:17:06.537Z,16.10
2017-11-01T18:19:33.377Z,16.50
2017-11-01T18:22:00.195Z,16.20
2017-11-01T18:24:27.056Z,17.20
2017-11-01T18:26:53.927Z,14.33
2017-11-01T18:29:20.754Z,16.77
2017-11-01T18:31:47.602Z,14.30
2017-11-01T18:34:14.521Z,15.47
2017-11-01T18:36:41.364Z,16.37
2017-11-01T18:39:08.232Z,15.47
2017-11-01T18:41:35.449Z,13.37
2017-11-01T18:44:02.288Z,14.47
2017-11-01T18:46:29.163Z,12.90
2017-11-01T18:48:56.006Z,14.93
2017-11-01T18:51:22.834Z,15.10
2017-11-01T18:53:49.701Z,13.50
2017-11-01T18:56:16.552Z,12.00
2017-11-01T18:58:43.380Z,13.33
2017-11-01T19:01:10.227Z,10.50
2017-11-01T19:03:37.068Z,14.83
2017-11-01T19:06:03.910Z,11.43
2017-11-01T19:08:30.806Z,11.47
2017-11-01T19:10:57.648Z,11.43
2017-11-01T19:13:24.488Z,9.87
2017-11-01T19:15:51.390Z,11.57
2017-11-01T19:18:18.227Z,12.10
2017-11-01T19:20:45.112Z,9.73
2017-11-01T19:23:12.066Z,10.97
2017-11-01T19:25:38.911Z,11.73
2017-11-01T19:28:05.808Z,11.70
2017-11-01T19:30:32.798Z,11.80
2017-11-01T19:32:59.649Z,12.53
2017-11-01T19:35:26.483Z,11.50
2017-11-01T19:37:53.468Z,11.53
2017-11-01T19:40:20.319Z,8.97
2017-11-01T19:42:47.185Z,11.23
2017-11-01T19:45:14.061Z,7.73
2017-11-01T19:47:41.152Z,8.93
2017-11-01T19:50:08.020Z,9.23
2017-11-01T19:52:34.933Z,9.93
2017-11-01T19:55:01.784Z,9.47
2017-11-01T19:57:28.646Z,8.50
2017-11-01T19:59:55.493Z,9.77
2017-11-01T20:02:22.347Z,6.50
2017-11-01T20:04:49.250Z,9.30
2017-11-01T20:07:16.122Z,10.83
2017-11-01T20:09:42.989Z,10.13
2017-11-01T20:12:09.833Z,8.53
2017-11-01T20:14:36.682Z,5.10
2017-11-01T20:17:03.568Z,9.20
2017-11-01T20:19:30.448Z,3.47
2017-11-01T20:21:57.659Z,9.20
2017-11-01T20:24:24.508Z,10.30
2017-11-01T20:26:51.403Z,9.17
2017-11-01T20:29:18.419Z,7.90
2017-11-01T20:31:45.744Z,5.03
2017-11-01T20:34:13.199Z,8.27
2017-11-01T20:36:40.110Z,9.50
2017-11-01T20:39:07.009Z,9.57
2017-11-01T20:41:33.897Z,9.60
2017-11-01T20:44:00.833Z,8.93
2017-11-01T20:46:27.677Z,8.70
2017-11-01T20:48:54.516Z,9.53
2017-11-01T20:51:21.427Z,7.00
2017-11-01T20:53:48.309Z,8.17
2017-11-01T20:56:15.155Z,8.50
2017-11-01T20:58:42.064Z,8.30
2017-11-01T21:01:09.198Z,8.13
2017-11-01T21:03:36.087Z,8.67
2017-11-01T21:06:02.979Z,6.93
2017-11-01T21:08:30.169Z,8.30
2017-11-01T21:10:57.151Z,6.33
2017-11-01T21:13:24.011Z,4.50
2017-11-01T21:15:50.854Z,5.70
2017-11-01T21:18:17.761Z,3.53
2017-11-01T21:20:44.598Z,5.03
2017-11-01T21:23:11.644Z,4.10
2017-11-01T21:25:38.481Z,4.20
2017-11-01T21:28:05.319Z,4.23
2017-11-01T21:30:32.115Z,4.10
2017-11-01T21:32:58.940Z,3.40
2017-11-01T21:35:27.045Z,4.50
2017-11-01T21:37:53.858Z,3.53
2017-11-01T21:40:20.676Z,3.80
2017-11-01T21:42:47.551Z,3.60
2017-11-01T21:45:14.726Z,3.50
2017-11-01T21:47:41.531Z,4.23
2017-11-01T21:50:08.391Z,2.90
2017-11-01T21:52:35.222Z,3.47
2017-11-01T21:55:02.436Z,4.27
2017-11-01T21:57:29.276Z,3.50
2017-11-01T21:59:56.105Z,3.40
2017-11-01T22:02:22.971Z,3.50
2017-11-01T22:04:49.832Z,3.83
2017-11-01T22:07:16.639Z,3.40
2017-11-01T22:09:43.446Z,2.90
2017-11-01T22:12:10.313Z,3.13
2017-11-01T22:14:37.162Z,4.10
2017-11-01T22:17:04.015Z,2.87
2017-11-01T22:19:30.874Z,3.30
2017-11-01T22:21:57.701Z,5.13
2017-11-01T22:24:24.543Z,4.00
2017-11-01T22:26:51.389Z,3.30
2017-11-01T22:29:18.207Z,3.53
2017-11-01T22:31:45.022Z,3.47
2017-11-01T22:34:11.917Z,4.23
2017-11-01T22:36:38.751Z,3.57
2017-11-01T22:39:05.588Z,4.20
2017-11-01T22:41:32.422Z,3.10
2017-11-01T22:44:00.014Z,3.53
2017-11-01T22:46:26.833Z,3.77
2017-11-01T22:48:53.681Z,3.90
2017-11-01T22:51:21.195Z,3.40
2017-11-01T22:53:48.010Z,3.33
2017-11-01T22:56:14.894Z,2.77
2017-11-01T22:58:41.718Z,4.03
2017-11-01T23:01:08.567Z,3.63
2017-11-01T23:03:35.433Z,2.97
2017-11-01T23:06:02.249Z,3.57
2017-11-01T23:08:29.066Z,3.07
2017-11-01T23:10:55.926Z,3.13
